Latest Weather Observations for Hamilton Island

IDQ60801

Issued at 3:32 pm EST Thursday 8 December 2016 (issued every 30 minutes, with the page automatically refreshed every 10 minutes)

About weather observations | Map of weather stations | Latest weather observations for QLD | Other Formats
Station Details ID: 033106 Name: HAMILTON ISLAND AIRPORT Lat: -20.37 Lon: 148.95 Height: 58.66 m
Data from the previous 72 hours. | See also: Recent months at Hamilton Island
Date/Time
EST
Temp
°C
App
Temp
°C
Dew
Point
°C
Rel
Hum
%
Delta-T
°C
Wind Press
QNH
hPa
Press
MSL
hPa
Rain since
9am
mm
Dir  Spd
km/h
Gust
km/h
Spd
kts
Gust
kts
08/03:30pm 28.0 26.9 20.3 63 5.1 E 26 32 14 17 1009.4 - 0.0
08/03:00pm 27.9 25.9 19.9 61 5.2 E 30 33 16 18 1009.5 1009.1 0.0
08/02:30pm 28.2 26.8 20.5 63 5.1 E 28 32 15 17 1009.8 - 0.0
08/02:00pm 28.2 26.7 20.2 62 5.3 E 28 32 15 17 1010.1 - 0.0
08/01:30pm 28.9 28.2 21.1 62 5.2 E 26 30 14 16 1010.5 - 0.0
08/01:00pm 29.0 28.4 20.4 59 5.7 E 24 28 13 15 1010.8 - 0.0
08/12:30pm 28.6 28.0 19.8 59 5.8 E 22 26 12 14 1011.2 - 0.0
08/12:00pm 29.1 28.9 20.5 59 5.7 E 22 26 12 14 1011.6 1011.2 0.0
08/11:30am 28.5 28.1 20.2 60 5.5 E 22 26 12 14 1011.9 - 0.0
08/11:00am 28.7 28.7 21.0 63 5.1 E 22 26 12 14 1012.2 - 0.0
08/10:30am 28.7 28.3 21.0 63 5.1 E 24 28 13 15 1012.4 - 0.0
08/10:00am 29.4 29.9 21.9 64 5.1 E 22 28 12 15 1012.7 - 0.0
08/09:30am 28.4 27.6 20.9 64 5.0 E 26 32 14 17 1012.8 - 0.0
08/09:00am 28.0 27.4 20.6 64 4.9 E 24 28 13 15 1012.8 1012.4 0.0
08/08:30am 27.9 27.5 21.0 66 4.6 E 24 30 13 16 1012.7 - 0.0
08/08:00am 27.9 28.2 20.7 65 4.8 E 20 26 11 14 1012.6 - 0.0
08/07:30am 27.7 28.1 21.0 67 4.4 ENE 20 26 11 14 1012.7 - 0.0
08/07:00am 26.3 26.8 20.8 71 3.6 ENE 19 24 10 13 1012.7 - 0.0
08/06:30am 26.5 27.6 21.3 73 3.5 ENE 17 19 9 10 1012.4 - 0.0
08/06:00am 25.2 27.1 21.3 79 2.6 NE 13 17 7 9 1012.2 1011.8 0.0
08/05:30am 24.9 26.3 21.0 79 2.6 NE 15 19 8 10 1011.8 - 0.0
08/05:00am 25.0 26.5 21.3 80 2.4 NNE 15 20 8 11 1011.6 - 0.0
08/04:30am 25.0 26.5 21.3 80 2.4 NNE 15 20 8 11 1011.2 - 0.0
08/04:00am 25.0 26.5 21.3 80 2.4 NNE 15 20 8 11 1011.2 - 0.0
08/03:30am 25.0 26.2 21.5 81 2.3 NE 17 22 9 12 1011.0 - 0.0
08/03:00am 25.1 26.0 21.6 81 2.3 NE 19 20 10 11 1010.9 1010.5 0.0
08/02:30am 25.2 27.3 21.7 81 2.3 NE 13 17 7 9 1011.0 - 0.0
08/02:00am 25.5 28.0 21.8 80 2.5 NNE 11 15 6 8 1011.2 - 0.0
08/01:30am 25.6 27.7 21.7 79 2.6 NNE 13 17 7 9 1011.3 - 0.0
08/01:00am 25.7 28.6 21.8 79 2.6 NNE 9 15 5 8 1011.7 - 0.0
08/12:30am 25.8 28.4 21.9 79 2.6 NNE 11 22 6 12 1012.0 - 0.0
08/12:29am 25.8 28.4 21.9 79 2.6 NNE 11 22 6 12 1012.0 - 0.0
08/12:00am 25.8 28.5 22.1 80 2.5 NE 11 17 6 9 1012.5 1012.1 0.0
 
Date/Time
EST
Temp
°C
App
Temp
°C
Dew
Point
°C
Rel
Hum
%
Delta-T
°C
Wind Press
QNH
hPa
Press
MSL
hPa
Rain since
9am
mm
Dir  Spd
km/h
Gust
km/h
Spd
kts
Gust
kts
07/11:53pm 25.8 28.1 22.1 80 2.5 NE 13 15 7 8 1012.6 - 0.0
07/11:30pm 25.8 27.7 22.1 80 2.5 NE 15 20 8 11 1012.8 - 0.0
07/11:00pm 26.0 27.6 22.1 79 2.6 ENE 17 20 9 11 1013.1 - 0.0
07/10:30pm 26.1 28.2 22.4 80 2.5 ENE 15 20 8 11 1013.3 - 0.0
07/10:00pm 26.0 28.0 22.3 80 2.5 E 15 19 8 10 1013.3 - 0.0
07/09:30pm 26.1 27.8 22.4 80 2.5 ENE 17 20 9 11 1013.2 - 0.0
07/09:00pm 26.1 27.8 22.4 80 2.5 ENE 17 20 9 11 1012.9 1012.5 0.0
07/08:30pm 26.3 28.0 22.4 79 2.6 ENE 17 22 9 12 1012.7 - 0.0
07/08:00pm 26.3 27.5 22.2 78 2.8 ENE 19 22 10 12 1012.4 - 0.0
07/07:30pm 26.4 28.1 22.3 78 2.8 ENE 17 22 9 12 1012.2 - 0.0
07/07:00pm 26.5 27.9 21.9 76 3.1 ENE 17 22 9 12 1012.2 - 0.0
07/06:30pm 26.8 27.8 21.8 74 3.3 ENE 19 24 10 13 1012.2 - 0.0
07/06:00pm 27.2 27.5 21.5 71 3.8 ENE 22 30 12 16 1011.9 1011.5 0.0
07/05:30pm 27.3 27.6 21.6 71 3.8 E 22 30 12 16 1011.8 - 0.0
07/05:00pm 27.6 27.9 21.6 70 4.0 E 22 28 12 15 1011.7 - 0.0
07/04:30pm 27.5 27.2 21.1 68 4.3 E 24 32 13 17 1011.5 - 0.0
07/04:00pm 27.8 26.8 20.4 64 4.9 E 26 32 14 17 1011.5 - 0.0
07/03:30pm 28.0 26.9 21.1 66 4.6 E 28 30 15 16 1011.9 - 0.0
07/03:00pm 28.0 26.9 21.1 66 4.6 E 28 32 15 17 1012.3 1011.9 0.0
07/02:30pm 27.9 27.0 20.7 65 4.8 E 26 32 14 17 1012.6 - 0.0
07/02:00pm 28.8 29.0 21.3 64 5.0 ESE 22 26 12 14 1012.8 - 0.0
07/01:30pm 28.5 28.4 20.8 63 5.1 E 22 28 12 15 1013.0 - 0.0
07/01:00pm 28.7 28.2 20.7 62 5.3 ESE 24 28 13 15 1013.2 - 0.0
07/12:30pm 28.7 28.4 20.4 60 5.5 ESE 22 26 12 14 1013.4 - 0.0
07/12:00pm 28.5 28.1 20.2 60 5.5 E 22 26 12 14 1013.6 1013.2 0.0
07/11:30am 28.5 28.4 20.0 60 5.6 ESE 20 26 11 14 1013.8 - 0.0
07/11:00am 28.2 28.4 20.5 63 5.1 ESE 20 26 11 14 1014.2 - 0.0
07/10:30am 29.3 29.9 21.0 61 5.5 ESE 19 20 10 11 1014.3 - 0.0
07/10:00am 28.0 29.5 21.3 67 4.5 SE 15 19 8 10 1014.4 - 0.0
07/09:30am 27.8 29.1 20.9 66 4.6 SE 15 17 8 9 1014.4 - 0.0
07/09:00am 27.6 29.2 20.7 66 4.6 ESE 13 17 7 9 1014.1 1013.7 0.0
07/08:30am 27.7 28.9 20.0 63 5.0 ESE 13 17 7 9 1013.8 - 0.0
07/08:00am 28.0 29.4 19.5 60 5.5 E 11 17 6 9 1013.7 - 0.0
07/07:30am 27.7 28.6 19.2 60 5.5 E 13 22 7 12 1013.5 - 0.0
07/07:00am 27.1 28.7 19.2 62 5.1 E 9 11 5 6 1013.3 - 0.0
07/06:30am 26.1 28.0 19.0 65 4.6 NE 7 13 4 7 1013.1 - 0.0
07/06:00am 25.3 27.2 19.7 71 3.6 ENE 9 13 5 7 1012.6 1012.2 0.0
07/05:30am 24.5 26.5 19.1 72 3.5 NE 7 9 4 5 1012.1 - 0.0
07/05:00am 24.2 25.9 18.6 71 3.6 NNE 7 9 4 5 1011.7 - 0.0
07/04:30am 24.3 25.6 18.5 70 3.7 NNE 9 11 5 6 1011.5 - 0.0
07/04:00am 24.7 25.7 18.6 69 3.9 NE 11 15 6 8 1011.5 - 0.0
07/03:30am 24.5 24.9 18.2 68 4.0 NE 13 17 7 9 1011.3 - 0.0
07/03:00am 24.8 25.5 18.0 66 4.3 ENE 11 15 6 8 1011.5 1011.1 0.0
07/02:30am 24.9 25.3 18.1 66 4.3 NE 13 19 7 10 1011.6 - 0.0
07/02:00am 25.0 25.5 18.4 66 4.2 ENE 13 19 7 10 1011.7 - 0.0
07/01:30am 24.9 26.1 18.3 66 4.2 ENE 9 13 5 7 1011.8 - 0.0
07/01:00am 25.1 25.1 18.1 65 4.4 ENE 15 19 8 10 1012.1 - 0.0
07/12:30am 25.5 24.7 17.9 63 4.8 ENE 19 24 10 13 1012.4 - 0.0
07/12:00am 25.6 24.7 18.3 64 4.6 E 20 26 11 14 1012.8 1012.4 0.0
 
Date/Time
EST
Temp
°C
App
Temp
°C
Dew
Point
°C
Rel
Hum
%
Delta-T
°C
Wind Press
QNH
hPa
Press
MSL
hPa
Rain since
9am
mm
Dir  Spd
km/h
Gust
km/h
Spd
kts
Gust
kts
06/11:30pm 25.6 24.6 18.0 63 4.8 E 20 30 11 16 1013.3 - 0.0
06/11:00pm 25.7 25.1 18.4 64 4.6 E 19 24 10 13 1013.4 - 0.0
06/10:30pm 25.7 23.6 18.1 63 4.8 E 26 32 14 17 1013.6 - 0.0
06/10:00pm 25.6 23.7 19.3 68 4.1 ESE 28 33 15 18 1013.5 - 0.0
06/09:30pm 25.7 24.3 19.6 69 3.9 ESE 26 30 14 16 1013.4 - 0.0
06/09:00pm 25.8 24.2 19.2 67 4.2 ESE 26 32 14 17 1013.2 1012.8 0.0
06/08:30pm 25.9 24.1 19.5 68 4.1 ESE 28 35 15 19 1013.0 - 0.0
06/08:00pm 25.9 23.7 19.5 68 4.1 E 30 35 16 19 1013.1 - 0.0
06/07:30pm 25.9 24.4 20.2 71 3.7 ESE 28 32 15 17 1013.0 - 0.0
06/07:00pm 25.9 24.0 19.3 67 4.3 ESE 28 33 15 18 1012.9 - 0.0
06/06:30pm 26.0 24.7 19.9 69 4.0 ESE 26 32 14 17 1012.8 - 0.0
06/06:00pm 26.2 24.7 20.3 70 3.9 E 28 32 15 17 1012.7 1012.3 0.0
06/05:30pm 26.6 25.1 20.2 68 4.2 ESE 28 33 15 18 1013.1 - 0.0
06/05:00pm 26.9 24.9 20.7 69 4.1 ESE 32 37 17 20 1012.9 - 0.0
06/04:30pm 27.0 26.2 20.8 69 4.1 ESE 26 35 14 19 1012.9 - 0.0
06/04:00pm 27.4 26.4 19.7 63 5.0 ESE 24 28 13 15 1012.9 - 0.0
06/03:30pm 27.8 26.6 20.1 63 5.0 E 26 32 14 17 1013.2 - 0.0
06/03:00pm 27.5 25.7 19.6 62 5.1 E 28 32 15 17 1013.4 1013.0 0.0
06/02:30pm 27.9 27.2 20.2 63 5.1 E 24 28 13 15 1013.7 - 0.0
06/02:00pm 28.3 27.7 20.6 63 5.1 E 24 30 13 16 1013.9 - 0.0
06/01:30pm 28.4 27.5 20.7 63 5.1 E 26 32 14 17 1014.0 - 0.0
06/01:00pm 28.2 26.5 19.7 60 5.5 E 28 32 15 17 1014.1 - 0.0
06/12:30pm 28.1 27.1 19.6 60 5.5 E 24 28 13 15 1014.3 - 0.0
06/12:00pm 28.3 27.5 20.1 61 5.4 E 24 28 13 15 1014.6 1014.3 0.0
06/11:30am 28.6 27.5 20.3 60 5.5 E 26 28 14 15 1014.9 - 0.0
06/11:00am 28.6 27.9 20.3 60 5.5 E 24 28 13 15 1015.1 - 0.0
06/10:30am 28.9 28.0 19.8 58 6.0 ESE 24 28 13 15 1015.5 - 0.0
06/10:00am 28.6 27.8 20.1 60 5.6 E 24 28 13 15 1015.8 - 0.0
06/09:30am 28.5 28.0 20.0 60 5.6 ESE 22 26 12 14 1016.0 - 0.0
06/09:00am 28.2 27.7 20.0 61 5.4 E 22 28 12 15 1015.9 1015.6 0.0
06/08:30am 28.5 29.1 21.0 64 5.0 ESE 19 24 10 13 1015.9 - 0.0
06/08:00am 27.8 28.1 19.6 61 5.3 E 17 24 9 13 1015.8 - 0.0
06/07:30am 28.0 28.0 19.8 61 5.4 ENE 19 24 10 13 1015.5 - 0.0
06/07:00am 27.2 27.0 19.8 64 4.8 E 20 28 11 15 1015.3 - 0.0
06/06:30am 26.4 26.2 19.8 67 4.3 E 20 26 11 14 1015.1 - 0.0
06/06:00am 26.2 25.8 20.1 69 4.0 E 22 28 12 15 1014.7 1014.4 0.0
06/05:30am 25.1 26.6 19.7 72 3.5 ENE 11 13 6 7 1014.4 - 0.0
06/05:00am 24.9 25.9 19.5 72 3.5 ENE 13 15 7 8 1014.0 - 0.0
06/04:30am 25.0 25.7 19.6 72 3.5 NE 15 20 8 11 1013.7 - 0.0
06/04:00am 25.3 25.1 19.7 71 3.6 ENE 20 28 11 15 1013.3 - 0.0
06/03:30am 25.2 26.1 20.0 73 3.4 ENE 15 19 8 10 1013.4 - 0.0
06/03:00am 25.3 25.6 20.3 74 3.3 ENE 19 22 10 12 1013.2 1012.8 0.0
06/02:30am 25.6 26.2 21.1 76 3.0 E 19 26 10 14 1013.1 - 0.0
06/02:00am 25.3 26.3 20.3 74 3.3 E 15 19 8 10 1013.2 - 0.0
06/01:30am 25.3 27.0 20.1 73 3.4 ENE 11 13 6 7 1013.5 - 0.0
06/12:30am 25.5 25.8 20.3 73 3.4 E 19 22 10 12 1014.0 - 0.0
06/12:00am 25.6 26.3 20.4 73 3.4 ENE 17 22 9 12 1014.3 1013.9 0.0
 
Date/Time
EST
Temp
°C
App
Temp
°C
Dew
Point
°C
Rel
Hum
%
Delta-T
°C
Wind Press
QNH
hPa
Press
MSL
hPa
Rain since
9am
mm
Dir  Spd
km/h
Gust
km/h
Spd
kts
Gust
kts
05/11:30pm 25.6 25.7 20.4 73 3.4 E 20 28 11 15 1014.2 - 0.0
05/11:00pm 25.7 26.0 20.5 73 3.4 E 19 26 10 14 1014.3 - 0.0
05/10:30pm 25.7 27.2 20.5 73 3.4 ENE 13 17 7 9 1014.7 - 0.0
05/10:00pm 25.9 27.1 20.7 73 3.4 ENE 15 20 8 11 1014.8 - 0.0
05/09:30pm 25.9 26.2 20.7 73 3.4 ENE 20 24 11 13 1014.5 - 0.0
05/09:00pm 25.7 26.5 20.7 74 3.3 E 17 22 9 12 1014.4 1014.0 0.0
05/08:30pm 25.8 26.7 20.8 74 3.3 E 17 22 9 12 1014.3 - 0.0
05/08:00pm 25.9 26.8 20.9 74 3.3 E 17 24 9 13 1014.2 - 0.0
05/07:30pm 25.9 26.7 20.7 73 3.4 E 17 20 9 11 1014.0 - 0.0
05/07:00pm 26.0 26.5 20.8 73 3.4 E 19 24 10 13 1013.9 - 0.0
05/06:30pm 26.1 26.4 20.7 72 3.6 E 20 26 11 14 1013.7 - 0.0
05/06:00pm 26.3 25.7 20.6 71 3.7 E 24 28 13 15 1013.5 1013.1 0.0
05/05:30pm 26.6 26.6 20.9 71 3.8 E 22 28 12 15 1013.3 - 0.0
05/05:00pm 26.8 26.5 21.1 71 3.8 E 24 28 13 15 1013.0 - 0.0
05/04:30pm 27.2 27.0 20.5 67 4.4 E 22 26 12 14 1013.1 - 0.0
05/04:00pm 27.2 26.7 20.8 68 4.2 E 24 28 13 15 1013.0 - 0.0

Other Formats:

Comma delimited format used in spreadsheet applications
http://www.bom.gov.au/fwo/IDQ60801/IDQ60801.94368.axf

JavaScript Object Notation format (JSON) in row-major order
http://www.bom.gov.au/fwo/IDQ60801/IDQ60801.94368.json